createdAt,value
2023-12-23T00:00:51.408Z,63.96
2023-12-23T00:03:43.296Z,63.76
2023-12-23T00:06:15.702Z,63.84
2023-12-23T00:08:47.629Z,63.81
2023-12-23T00:11:19.417Z,64.07
2023-12-23T00:13:51.217Z,63.93
2023-12-23T00:16:25.308Z,64.14
2023-12-23T00:18:57.260Z,63.95
2023-12-23T00:21:29.090Z,64.25
2023-12-23T00:24:00.866Z,63.95
2023-12-23T00:26:32.748Z,64.14
2023-12-23T00:29:04.773Z,64.26
2023-12-23T00:31:36.633Z,64.38
2023-12-23T00:34:08.518Z,64.38
2023-12-23T00:36:40.278Z,64.57
2023-12-23T00:39:12.125Z,64.65
2023-12-23T00:41:44.363Z,64.56
2023-12-23T00:44:16.352Z,64.76
2023-12-23T00:46:48.268Z,64.88
2023-12-23T00:49:20.286Z,64.81
2023-12-23T00:51:52.126Z,64.67
2023-12-23T00:54:24.643Z,64.78
2023-12-23T00:56:56.689Z,64.56
2023-12-23T00:59:28.480Z,64.60
2023-12-23T01:02:00.360Z,64.45
2023-12-23T01:04:32.278Z,64.42
2023-12-23T01:07:04.049Z,64.26
2023-12-23T01:09:35.838Z,64.54
2023-12-23T01:12:09.151Z,64.34
2023-12-23T01:14:41.073Z,64.31
2023-12-23T01:17:13.031Z,64.36
2023-12-23T01:19:44.991Z,64.26
2023-12-23T01:22:16.890Z,64.25
2023-12-23T01:24:48.639Z,64.06
2023-12-23T01:27:22.957Z,64.09
2023-12-23T01:29:54.835Z,64.10
2023-12-23T01:32:26.851Z,64.06
2023-12-23T01:34:58.781Z,64.13
2023-12-23T01:37:30.854Z,64.31
2023-12-23T01:40:02.658Z,64.12
2023-12-23T01:42:34.429Z,64.21
2023-12-23T01:45:07.095Z,64.27
2023-12-23T01:47:42.449Z,64.21
2023-12-23T01:50:15.215Z,64.17
2023-12-23T01:52:47.595Z,64.16
2023-12-23T01:55:19.766Z,64.14
2023-12-23T01:57:51.851Z,64.10
2023-12-23T02:00:24.280Z,63.95
2023-12-23T02:02:58.553Z,64.02
2023-12-23T02:05:30.753Z,64.02
2023-12-23T02:08:02.914Z,64.28
2023-12-23T02:10:35.038Z,64.12
2023-12-23T02:13:16.378Z,64.30
2023-12-23T02:15:51.140Z,64.43
2023-12-23T02:18:26.802Z,64.13
2023-12-23T02:21:00.383Z,64.20
2023-12-23T02:23:32.243Z,64.35
2023-12-23T02:26:06.168Z,64.43
2023-12-23T02:28:38.263Z,64.54
2023-12-23T02:31:10.879Z,64.49
2023-12-23T02:33:42.752Z,64.18
2023-12-23T02:36:14.637Z,64.32
2023-12-23T02:38:46.429Z,64.61
2023-12-23T02:41:18.574Z,64.54
2023-12-23T02:43:50.345Z,64.98
2023-12-23T02:46:23.246Z,65.05
2023-12-23T02:48:55.303Z,65.10
2023-12-23T02:51:27.087Z,65.42
2023-12-23T02:53:58.925Z,65.85
2023-12-23T02:56:32.145Z,65.83
2023-12-23T02:59:04.037Z,65.96
2023-12-23T03:01:35.814Z,66.75
2023-12-23T03:04:07.658Z,67.27
2023-12-23T03:06:39.414Z,67.52
2023-12-23T03:09:11.221Z,68.15
2023-12-23T03:11:43.071Z,68.65
2023-12-23T03:14:15.165Z,68.97
2023-12-23T03:16:47.239Z,69.35
2023-12-23T03:19:19.009Z,69.41
2023-12-23T03:21:50.882Z,69.76
2023-12-23T03:24:22.877Z,70.06
2023-12-23T03:26:54.806Z,70.29
2023-12-23T03:29:26.641Z,70.45
2023-12-23T03:31:58.481Z,70.64
2023-12-23T03:34:30.418Z,70.56
2023-12-23T03:37:02.208Z,70.31
2023-12-23T03:39:33.961Z,70.34
2023-12-23T03:42:06.239Z,70.47
2023-12-23T03:44:38.182Z,70.59
2023-12-23T03:47:10.521Z,70.53
2023-12-23T03:49:42.751Z,70.49
2023-12-23T03:52:14.644Z,70.25
2023-12-23T03:54:46.557Z,70.18
2023-12-23T03:57:18.414Z,70.14
2023-12-23T03:59:50.358Z,69.94
2023-12-23T04:02:22.121Z,70.18
2023-12-23T04:04:53.974Z,70.13
2023-12-23T04:07:26.051Z,70.03
2023-12-23T04:09:57.813Z,70.16
2023-12-23T04:12:29.766Z,70.47
2023-12-23T04:15:02.001Z,70.15
2023-12-23T04:17:33.953Z,70.12
2023-12-23T04:20:06.493Z,69.97
2023-12-23T04:22:38.608Z,70.19
2023-12-23T04:25:11.446Z,69.98
2023-12-23T04:27:43.261Z,70.16
2023-12-23T04:30:15.989Z,70.00
2023-12-23T04:32:48.610Z,70.09
2023-12-23T04:35:20.886Z,69.85
2023-12-23T04:37:52.753Z,69.90
2023-12-23T04:40:24.808Z,69.46
2023-12-23T04:42:56.584Z,69.09
2023-12-23T04:45:28.363Z,68.96
2023-12-23T04:48:00.372Z,68.99
2023-12-23T04:50:32.179Z,68.84
2023-12-23T04:53:04.058Z,68.65
2023-12-23T04:55:35.887Z,68.41
2023-12-23T04:58:11.559Z,68.22
2023-12-23T05:00:43.373Z,68.12
2023-12-23T05:03:15.156Z,67.82
2023-12-23T05:05:47.225Z,67.80
2023-12-23T05:08:19.077Z,67.80
2023-12-23T05:10:50.963Z,67.62
2023-12-23T05:13:24.432Z,67.64
2023-12-23T05:15:54.713Z,67.55
2023-12-23T05:18:26.609Z,67.08
2023-12-23T05:20:58.649Z,66.92
2023-12-23T05:23:30.445Z,66.84
2023-12-23T05:26:02.303Z,66.45
2023-12-23T05:28:34.228Z,66.01
2023-12-23T05:31:06.267Z,65.81
2023-12-23T05:33:38.223Z,65.47
2023-12-23T05:36:11.522Z,65.36
2023-12-23T05:38:43.290Z,65.04
2023-12-23T05:41:15.185Z,65.16
2023-12-23T05:43:47.454Z,65.06
2023-12-23T05:46:19.358Z,64.71
2023-12-23T05:48:51.158Z,64.73
2023-12-23T05:51:23.008Z,64.57
2023-12-23T05:53:55.009Z,64.52
2023-12-23T05:56:26.854Z,64.54
2023-12-23T05:58:58.761Z,64.71
2023-12-23T06:01:30.583Z,64.85
2023-12-23T06:04:02.559Z,64.72
2023-12-23T06:06:34.423Z,64.58
2023-12-23T06:09:07.776Z,64.75
2023-12-23T06:11:42.309Z,64.46
2023-12-23T06:14:14.510Z,64.38
2023-12-23T06:16:46.429Z,64.48
2023-12-23T06:19:18.245Z,64.51
2023-12-23T06:21:50.060Z,64.57
2023-12-23T06:24:21.828Z,64.47
2023-12-23T06:26:53.668Z,64.76
2023-12-23T06:29:25.501Z,64.61
2023-12-23T06:31:58.101Z,64.60
2023-12-23T06:34:29.932Z,64.63
2023-12-23T06:37:01.706Z,64.62
2023-12-23T06:39:33.792Z,64.43
2023-12-23T06:42:05.951Z,64.36
2023-12-23T06:44:37.761Z,64.33
2023-12-23T06:47:09.906Z,64.47
2023-12-23T06:49:41.826Z,64.56
2023-12-23T06:52:13.806Z,64.62
2023-12-23T06:54:45.632Z,64.92
2023-12-23T06:57:17.507Z,65.30
2023-12-23T06:59:49.745Z,65.77
2023-12-23T07:02:21.572Z,66.24
2023-12-23T07:04:53.694Z,66.67
2023-12-23T07:07:25.870Z,67.00
2023-12-23T07:10:04.732Z,67.03
2023-12-23T07:12:39.505Z,66.96
2023-12-23T07:15:13.153Z,67.11
2023-12-23T07:17:45.166Z,67.07
2023-12-23T07:20:17.392Z,66.86
2023-12-23T07:22:49.534Z,66.73
2023-12-23T07:25:21.804Z,66.64
2023-12-23T07:27:53.568Z,66.69
2023-12-23T07:30:25.444Z,66.60
2023-12-23T07:32:57.664Z,66.34
2023-12-23T07:35:29.759Z,66.10
2023-12-23T07:38:01.588Z,66.07
2023-12-23T07:40:36.077Z,66.14
2023-12-23T07:43:08.531Z,66.26
2023-12-23T07:45:40.509Z,65.95
2023-12-23T07:48:12.778Z,65.92
2023-12-23T07:50:44.757Z,65.73
2023-12-23T07:53:16.608Z,65.80
2023-12-23T07:55:49.166Z,65.81
2023-12-23T07:58:21.083Z,65.81
2023-12-23T08:00:52.923Z,65.51
2023-12-23T08:03:24.766Z,65.08
2023-12-23T08:05:56.676Z,65.13
2023-12-23T08:08:28.657Z,64.92
2023-12-23T08:11:00.885Z,65.00
2023-12-23T08:13:33.098Z,64.63
2023-12-23T08:16:05.165Z,64.36
2023-12-23T08:18:37.096Z,64.17
2023-12-23T08:21:09.562Z,64.21
2023-12-23T08:23:41.370Z,63.99
2023-12-23T08:26:13.190Z,64.21
2023-12-23T08:28:47.012Z,64.95
2023-12-23T08:31:19.087Z,64.45
2023-12-23T08:33:50.979Z,63.09
2023-12-23T08:36:23.887Z,60.70
2023-12-23T08:38:55.881Z,60.98
2023-12-23T08:41:28.037Z,60.97
2023-12-23T08:43:59.866Z,61.00
2023-12-23T08:46:32.759Z,60.42
2023-12-23T08:49:05.828Z,58.98
2023-12-23T08:51:39.440Z,57.94
2023-12-23T08:54:11.179Z,58.09
2023-12-23T08:56:42.997Z,58.65
2023-12-23T08:59:14.827Z,58.90
2023-12-23T09:01:46.744Z,59.68
2023-12-23T09:04:19.262Z,59.86
2023-12-23T09:06:51.060Z,60.04
2023-12-23T09:09:22.937Z,60.49
2023-12-23T09:11:54.744Z,60.78
2023-12-23T09:14:26.717Z,60.64
2023-12-23T09:16:58.683Z,60.24
2023-12-23T09:19:30.527Z,60.60
2023-12-23T09:22:02.376Z,60.28
2023-12-23T09:24:34.255Z,60.59
2023-12-23T09:27:07.058Z,60.52
2023-12-23T09:29:38.904Z,60.51
2023-12-23T09:32:10.789Z,60.92
2023-12-23T09:34:42.581Z,60.52
2023-12-23T09:37:14.407Z,60.47
2023-12-23T09:39:46.184Z,60.59
2023-12-23T09:42:18.820Z,60.44
2023-12-23T09:44:50.043Z,60.59
2023-12-23T09:47:21.945Z,60.82
2023-12-23T09:49:53.953Z,60.75
2023-12-23T09:52:26.049Z,60.58
2023-12-23T09:55:03.402Z,60.48
2023-12-23T09:57:37.441Z,60.44
2023-12-23T10:00:12.088Z,60.45
2023-12-23T10:02:43.892Z,60.40
2023-12-23T10:05:16.470Z,60.64
2023-12-23T10:07:48.363Z,60.64
2023-12-23T10:10:20.685Z,60.93
2023-12-23T10:12:53.323Z,60.74
2023-12-23T10:15:25.426Z,61.05
2023-12-23T10:17:58.307Z,61.28
2023-12-23T10:20:30.295Z,61.44
2023-12-23T10:23:02.138Z,61.55
2023-12-23T10:25:34.048Z,61.58
2023-12-23T10:28:08.602Z,61.70
2023-12-23T10:30:48.324Z,61.76
2023-12-23T10:33:23.787Z,61.41
2023-12-23T10:35:59.831Z,61.80
2023-12-23T10:38:32.911Z,61.58
2023-12-23T10:41:13.583Z,61.52
2023-12-23T10:43:46.191Z,61.65
2023-12-23T10:46:19.094Z,61.23
2023-12-23T10:48:52.203Z,61.35
2023-12-23T10:51:25.260Z,61.44
2023-12-23T10:53:59.263Z,61.36
2023-12-23T10:56:31.899Z,61.31
2023-12-23T10:59:04.336Z,60.92
2023-12-23T11:01:38.187Z,60.84
2023-12-23T11:04:10.254Z,60.93
2023-12-23T11:06:46.001Z,60.82
2023-12-23T11:09:19.563Z,60.85
2023-12-23T11:11:50.180Z,60.88
2023-12-23T11:14:22.105Z,60.62
2023-12-23T11:16:57.425Z,60.58
2023-12-23T11:19:29.774Z,60.48
2023-12-23T11:22:24.608Z,60.53
2023-12-23T11:24:56.956Z,60.39
2023-12-23T11:27:36.356Z,60.20
2023-12-23T11:30:10.223Z,60.06
2023-12-23T11:32:45.197Z,60.21
2023-12-23T11:35:17.202Z,60.22
2023-12-23T11:37:57.087Z,60.06
2023-12-23T11:40:31.322Z,60.10
2023-12-23T11:43:04.008Z,60.21
2023-12-23T11:45:36.140Z,60.15
2023-12-23T11:48:09.621Z,60.30
2023-12-23T11:50:39.928Z,60.06
2023-12-23T11:53:14.041Z,60.24
2023-12-23T11:55:46.779Z,60.52
2023-12-23T11:58:18.905Z,60.70
2023-12-23T12:00:55.382Z,60.54
2023-12-23T12:03:28.492Z,60.80
2023-12-23T12:06:01.606Z,60.82
2023-12-23T12:08:33.566Z,61.30
2023-12-23T12:11:05.627Z,61.58
2023-12-23T12:13:38.788Z,62.04
2023-12-23T12:16:10.780Z,62.73
2023-12-23T12:18:44.505Z,63.28
2023-12-23T12:21:16.534Z,63.62
2023-12-23T12:23:48.407Z,64.10
2023-12-23T12:26:21.224Z,64.34
2023-12-23T12:28:54.078Z,64.65
2023-12-23T12:31:26.013Z,65.09
2023-12-23T12:33:58.152Z,65.53
2023-12-23T12:36:30.306Z,66.04
2023-12-23T12:39:02.090Z,66.73
2023-12-23T12:41:38.408Z,67.11
2023-12-23T12:44:10.827Z,67.85
2023-12-23T12:46:42.579Z,68.18
2023-12-23T12:49:16.453Z,68.70
2023-12-23T12:51:48.379Z,68.95
2023-12-23T12:54:21.689Z,69.49
2023-12-23T12:56:54.029Z,69.64
2023-12-23T12:59:25.896Z,69.70
2023-12-23T13:01:57.752Z,70.26
2023-12-23T13:04:29.524Z,70.73
2023-12-23T13:07:01.270Z,71.19
2023-12-23T13:09:32.980Z,71.24
2023-12-23T13:12:05.595Z,71.59
2023-12-23T13:14:37.855Z,71.75
2023-12-23T13:17:09.771Z,71.70
2023-12-23T13:19:41.579Z,72.02
2023-12-23T13:22:13.385Z,72.57
2023-12-23T13:24:45.105Z,72.72
2023-12-23T13:27:18.644Z,72.88
2023-12-23T13:29:49.205Z,73.03
2023-12-23T13:32:20.952Z,72.99
2023-12-23T13:34:52.957Z,73.39
2023-12-23T13:37:24.704Z,73.66
2023-12-23T13:39:56.450Z,73.88
2023-12-23T13:42:28.440Z,74.19
2023-12-23T13:45:01.562Z,74.39
2023-12-23T13:47:34.673Z,74.51
2023-12-23T13:50:08.676Z,74.70
2023-12-23T13:52:41.393Z,75.23
2023-12-23T13:55:13.478Z,75.44
2023-12-23T13:57:45.242Z,75.63
2023-12-23T14:00:18.570Z,75.74
2023-12-23T14:02:50.590Z,75.53
2023-12-23T14:05:22.963Z,75.65
2023-12-23T14:07:54.946Z,75.93
2023-12-23T14:10:26.734Z,76.08
2023-12-23T14:12:58.831Z,76.45
2023-12-23T14:15:30.592Z,76.68
2023-12-23T14:18:04.452Z,76.56
2023-12-23T14:20:36.343Z,76.50
2023-12-23T14:23:08.867Z,76.78
2023-12-23T14:25:40.705Z,76.80
2023-12-23T14:28:13.723Z,76.97
2023-12-23T14:30:46.606Z,77.07
2023-12-23T14:33:18.552Z,76.98
2023-12-23T14:35:50.595Z,77.03
2023-12-23T14:38:22.395Z,77.06
2023-12-23T14:40:54.453Z,77.28
2023-12-23T14:43:26.267Z,77.46
2023-12-23T14:45:58.156Z,77.29
2023-12-23T14:48:30.048Z,77.38
2023-12-23T14:51:02.183Z,77.21
2023-12-23T14:53:34.102Z,77.04
2023-12-23T14:56:06.278Z,77.32
2023-12-23T14:58:38.140Z,77.37
2023-12-23T15:01:10.304Z,77.30
2023-12-23T15:03:42.121Z,77.39
2023-12-23T15:06:14.018Z,77.37
2023-12-23T15:08:45.899Z,77.29
2023-12-23T15:11:17.701Z,77.33
2023-12-23T15:13:49.983Z,77.16
2023-12-23T15:16:21.781Z,77.22
2023-12-23T15:18:56.072Z,77.23
2023-12-23T15:21:28.947Z,77.45
2023-12-23T15:24:00.793Z,77.58
2023-12-23T15:26:33.118Z,77.60
2023-12-23T15:29:05.569Z,77.58
2023-12-23T15:31:37.390Z,77.88
2023-12-23T15:34:09.272Z,77.53
2023-12-23T15:36:41.103Z,77.42
2023-12-23T15:39:13.966Z,77.64
2023-12-23T15:41:45.765Z,77.89
2023-12-23T15:44:17.571Z,77.81
2023-12-23T15:46:49.498Z,78.00
2023-12-23T15:49:21.320Z,77.93
2023-12-23T15:51:53.103Z,77.81
2023-12-23T15:54:24.943Z,77.93
2023-12-23T15:56:57.697Z,78.01
2023-12-23T15:59:29.519Z,78.15
2023-12-23T16:02:04.042Z,78.27
2023-12-23T16:04:36.191Z,78.33
2023-12-23T16:07:08.191Z,78.16
2023-12-23T16:09:39.981Z,77.95
2023-12-23T16:12:11.968Z,77.97
2023-12-23T16:14:43.832Z,78.15
2023-12-23T16:17:15.622Z,78.20
2023-12-23T16:19:47.517Z,78.19
2023-12-23T16:22:19.305Z,78.25
2023-12-23T16:24:51.065Z,78.16
2023-12-23T16:27:22.918Z,77.85
2023-12-23T16:29:54.699Z,77.81
2023-12-23T16:32:26.639Z,77.89
2023-12-23T16:34:59.045Z,78.08
2023-12-23T16:37:30.975Z,77.95
2023-12-23T16:40:03.376Z,77.83
2023-12-23T16:42:37.610Z,77.85
2023-12-23T16:45:15.720Z,78.11
2023-12-23T16:47:47.675Z,78.07
2023-12-23T16:50:19.762Z,78.00
2023-12-23T16:52:51.814Z,77.82
2023-12-23T16:55:23.792Z,77.94
2023-12-23T16:57:56.235Z,77.72
2023-12-23T17:00:28.332Z,77.99
2023-12-23T17:03:00.073Z,77.88
2023-12-23T17:05:32.907Z,77.97
2023-12-23T17:08:04.888Z,77.99
2023-12-23T17:10:38.970Z,77.96
2023-12-23T17:13:10.771Z,78.00
2023-12-23T17:15:42.609Z,77.85
2023-12-23T17:18:14.475Z,77.60
2023-12-23T17:20:46.282Z,77.45
2023-12-23T17:23:18.182Z,77.64
2023-12-23T17:25:49.966Z,77.47
2023-12-23T17:28:21.928Z,77.46
2023-12-23T17:30:53.932Z,77.44
2023-12-23T17:33:25.837Z,77.60
2023-12-23T17:35:57.979Z,77.58
2023-12-23T17:38:29.816Z,77.47
2023-12-23T17:41:01.855Z,77.10
2023-12-23T17:43:33.716Z,77.23
2023-12-23T17:46:06.727Z,77.10
2023-12-23T17:48:38.574Z,77.29
2023-12-23T17:51:10.869Z,77.14
2023-12-23T17:53:42.729Z,77.28
2023-12-23T17:56:14.816Z,77.33
2023-12-23T17:58:46.632Z,77.12
2023-12-23T18:01:18.475Z,77.07
2023-12-23T18:03:50.452Z,77.22
2023-12-23T18:06:22.233Z,77.21
2023-12-23T18:08:54.080Z,77.36
2023-12-23T18:11:25.945Z,77.60
2023-12-23T18:13:57.819Z,77.68
2023-12-23T18:16:29.690Z,77.81
2023-12-23T18:19:01.495Z,77.71
2023-12-23T18:21:33.285Z,77.48
2023-12-23T18:24:05.404Z,77.47
2023-12-23T18:26:37.318Z,77.53
2023-12-23T18:29:09.194Z,77.80
2023-12-23T18:31:41.185Z,77.63
2023-12-23T18:34:13.154Z,77.58
2023-12-23T18:36:44.957Z,77.64
2023-12-23T18:39:16.799Z,77.73
2023-12-23T18:41:48.573Z,77.54
2023-12-23T18:44:22.080Z,77.33
2023-12-23T18:46:54.923Z,77.56
2023-12-23T18:49:27.259Z,77.67
2023-12-23T18:51:59.015Z,77.65
2023-12-23T18:54:30.778Z,77.77
2023-12-23T18:57:05.221Z,77.82
2023-12-23T18:59:37.041Z,77.62
2023-12-23T19:02:10.594Z,77.60
2023-12-23T19:04:41.381Z,77.71
2023-12-23T19:07:13.171Z,77.95
2023-12-23T19:09:45.513Z,78.05
2023-12-23T19:12:17.286Z,78.13
2023-12-23T19:14:49.345Z,78.08
2023-12-23T19:17:21.296Z,77.84
2023-12-23T19:19:53.148Z,77.88
2023-12-23T19:22:25.007Z,78.07
2023-12-23T19:24:56.714Z,78.29
2023-12-23T19:27:28.480Z,78.40
2023-12-23T19:30:00.288Z,78.53
2023-12-23T19:32:32.232Z,78.46
2023-12-23T19:35:04.250Z,78.50
2023-12-23T19:37:36.665Z,78.41
2023-12-23T19:40:11.201Z,78.59
2023-12-23T19:42:43.081Z,78.60
2023-12-23T19:45:15.456Z,78.70
2023-12-23T19:47:47.499Z,78.91
2023-12-23T19:50:20.301Z,78.93
2023-12-23T19:52:54.558Z,79.05
2023-12-23T19:55:26.661Z,78.99
2023-12-23T19:57:58.632Z,79.14
2023-12-23T20:00:30.597Z,79.17
2023-12-23T20:03:02.697Z,79.09
2023-12-23T20:05:36.974Z,78.99
2023-12-23T20:08:09.698Z,78.93
2023-12-23T20:10:41.935Z,79.10
2023-12-23T20:13:13.997Z,79.17
2023-12-23T20:15:46.865Z,79.21
2023-12-23T20:18:18.921Z,79.23
2023-12-23T20:20:50.927Z,79.19
2023-12-23T20:23:22.834Z,78.98
2023-12-23T20:25:54.901Z,79.29
2023-12-23T20:28:26.769Z,79.36
2023-12-23T20:30:58.597Z,79.36
2023-12-23T20:33:30.559Z,79.52
2023-12-23T20:36:04.345Z,79.13
2023-12-23T20:38:36.530Z,79.11
2023-12-23T20:41:08.671Z,79.33
2023-12-23T20:43:40.625Z,79.30
2023-12-23T20:46:14.106Z,79.37
2023-12-23T20:48:47.328Z,79.48
2023-12-23T20:51:19.520Z,79.18
2023-12-23T20:53:51.892Z,79.22
2023-12-23T20:56:25.994Z,79.08
2023-12-23T20:58:58.303Z,79.14
2023-12-23T21:01:30.115Z,79.00
2023-12-23T21:04:03.608Z,79.17
2023-12-23T21:06:35.813Z,79.04
2023-12-23T21:09:09.259Z,79.14
2023-12-23T21:11:41.028Z,79.15
2023-12-23T21:14:12.876Z,79.30
2023-12-23T21:16:44.989Z,79.18
2023-12-23T21:19:16.809Z,79.29
2023-12-23T21:21:50.643Z,79.29
2023-12-23T21:24:23.547Z,79.10
2023-12-23T21:26:55.322Z,78.91
2023-12-23T21:29:27.465Z,78.84
2023-12-23T21:31:59.363Z,78.88
2023-12-23T21:34:31.303Z,78.93
2023-12-23T21:37:03.158Z,79.09
2023-12-23T21:39:35.204Z,79.03
2023-12-23T21:42:07.513Z,78.92
2023-12-23T21:44:39.418Z,78.81
2023-12-23T21:47:12.378Z,78.78
2023-12-23T21:49:44.216Z,79.00
2023-12-23T21:52:16.427Z,79.10
2023-12-23T21:54:48.266Z,79.27
2023-12-23T21:57:20.827Z,79.12
2023-12-23T21:59:52.695Z,79.17
2023-12-23T22:02:24.709Z,79.07
2023-12-23T22:04:56.664Z,79.33
2023-12-23T22:07:28.528Z,79.38
2023-12-23T22:10:00.466Z,79.25
2023-12-23T22:12:32.232Z,79.14
2023-12-23T22:15:03.996Z,79.07
2023-12-23T22:17:35.943Z,79.23
2023-12-23T22:20:09.158Z,79.37
2023-12-23T22:22:40.974Z,79.38
2023-12-23T22:25:12.940Z,79.32
2023-12-23T22:27:44.785Z,79.34
2023-12-23T22:30:17.095Z,79.46
2023-12-23T22:32:49.146Z,79.38
2023-12-23T22:35:21.314Z,79.58
2023-12-23T22:37:53.261Z,79.59
2023-12-23T22:40:25.148Z,79.67
2023-12-23T22:42:56.922Z,79.28
2023-12-23T22:45:28.936Z,79.12
2023-12-23T22:48:02.180Z,79.51
2023-12-23T22:50:34.075Z,79.44
2023-12-23T22:53:06.115Z,79.55
2023-12-23T22:55:37.912Z,79.43
2023-12-23T22:58:10.145Z,79.32
2023-12-23T23:00:42.524Z,79.41
2023-12-23T23:03:14.442Z,79.38
2023-12-23T23:05:46.374Z,79.51
2023-12-23T23:08:18.236Z,79.51
2023-12-23T23:10:49.987Z,79.35
2023-12-23T23:13:21.732Z,79.30
2023-12-23T23:15:53.650Z,79.28
2023-12-23T23:18:25.825Z,79.13
2023-12-23T23:20:57.801Z,79.29
2023-12-23T23:23:30.280Z,79.35
2023-12-23T23:26:02.185Z,79.35
2023-12-23T23:28:34.177Z,79.39
2023-12-23T23:31:06.197Z,79.16
2023-12-23T23:33:38.001Z,79.10
2023-12-23T23:36:15.140Z,79.08
2023-12-23T23:38:46.977Z,79.07
2023-12-23T23:41:18.794Z,79.30
2023-12-23T23:43:50.606Z,79.38
2023-12-23T23:46:22.360Z,79.17
2023-12-23T23:48:54.308Z,79.02
2023-12-23T23:51:26.605Z,78.92
2023-12-23T23:53:58.350Z,79.18
2023-12-23T23:56:30.233Z,79.26
2023-12-23T23:59:02.069Z,79.03
